createdAt,value
2022-10-11T00:01:05.154Z,7.00
2022-10-11T00:03:33.418Z,6.62
2022-10-11T00:06:03.633Z,8.27
2022-10-11T00:08:34.676Z,11.77
2022-10-11T00:11:06.330Z,6.35
2022-10-11T00:13:34.356Z,7.95
2022-10-11T00:16:09.007Z,10.00
2022-10-11T00:18:37.336Z,6.70
2022-10-11T00:21:12.939Z,6.10
2022-10-11T00:23:41.983Z,7.60
2022-10-11T00:26:11.259Z,8.65
2022-10-11T00:28:39.560Z,7.03
2022-10-11T00:31:10.577Z,9.75
2022-10-11T00:33:38.910Z,6.07
2022-10-11T00:36:08.758Z,7.78
2022-10-11T00:38:37.021Z,8.85
2022-10-11T00:41:05.527Z,9.18
2022-10-11T00:43:34.006Z,7.93
2022-10-11T00:46:07.569Z,6.82
2022-10-11T00:48:36.051Z,7.65
2022-10-11T00:51:13.305Z,9.70
2022-10-11T00:56:31.561Z,7.40
2022-10-11T00:59:02.948Z,6.05
2022-10-11T01:01:34.581Z,7.37
2022-10-11T01:04:03.491Z,7.68
2022-10-11T01:06:35.445Z,8.70
2022-10-11T01:09:04.496Z,6.68
2022-10-11T01:11:33.194Z,6.87
2022-10-11T01:14:27.135Z,7.03
2022-10-11T01:17:06.853Z,6.22
2022-10-11T01:20:19.034Z,6.72
2022-10-11T01:23:11.622Z,9.50
2022-10-11T01:26:07.395Z,7.70
2022-10-11T01:28:44.258Z,5.12
2022-10-11T01:31:17.775Z,7.95
2022-10-11T01:34:03.746Z,6.47
2022-10-11T01:36:41.888Z,7.10
2022-10-11T01:39:41.079Z,7.90
2022-10-11T01:42:12.733Z,5.15
2022-10-11T01:44:45.301Z,6.37
2022-10-11T01:47:13.278Z,7.03
2022-10-11T01:49:42.241Z,6.95
2022-10-11T01:52:11.560Z,7.47
2022-10-11T01:55:17.853Z,8.90
2022-10-11T01:57:58.227Z,10.73
2022-10-11T02:00:33.889Z,7.37
2022-10-11T02:03:23.719Z,8.40
2022-10-11T02:06:01.533Z,9.30
2022-10-11T02:08:51.558Z,6.37
2022-10-11T02:11:30.368Z,5.62
2022-10-11T02:14:10.463Z,6.57
2022-10-11T02:16:49.562Z,6.32
2022-10-11T02:19:22.233Z,6.57
2022-10-11T02:22:05.900Z,4.87
2022-10-11T02:24:43.357Z,8.82
2022-10-11T02:27:13.877Z,8.27
2022-10-11T02:29:47.317Z,9.05
2022-10-11T02:32:30.404Z,6.45
2022-10-11T02:35:12.437Z,6.70
2022-10-11T02:38:01.651Z,9.10
2022-10-11T02:40:48.785Z,7.43
2022-10-11T02:43:38.832Z,9.13
2022-10-11T02:46:20.716Z,5.90
2022-10-11T02:49:03.345Z,5.32
2022-10-11T02:51:43.581Z,8.02
2022-10-11T02:54:25.062Z,7.78
2022-10-11T02:57:05.269Z,8.70
2022-10-11T02:59:47.958Z,8.25
2022-10-11T03:02:28.585Z,7.93
2022-10-11T03:05:09.350Z,8.57
2022-10-11T03:07:50.195Z,8.05
2022-10-11T03:10:30.394Z,9.20
2022-10-11T03:13:12.821Z,6.25
2022-10-11T03:16:03.243Z,6.62
2022-10-11T03:18:47.791Z,8.35
2022-10-11T03:21:28.384Z,6.78
2022-10-11T03:24:08.277Z,7.00
2022-10-11T03:26:51.290Z,7.68
2022-10-11T03:29:31.800Z,8.38
2022-10-11T03:32:14.513Z,5.00
2022-10-11T03:34:55.074Z,9.27
2022-10-11T03:37:35.159Z,8.77
2022-10-11T03:40:15.679Z,11.30
2022-10-11T03:42:56.743Z,10.05
2022-10-11T03:45:37.216Z,8.63
2022-10-11T03:48:17.072Z,8.60
2022-10-11T03:50:57.211Z,8.98
2022-10-11T03:53:37.323Z,6.75
2022-10-11T03:56:17.372Z,11.32
2022-10-11T03:58:57.454Z,7.45
2022-10-11T04:01:40.391Z,8.85
2022-10-11T04:04:20.754Z,7.43
2022-10-11T04:07:00.953Z,7.80
2022-10-11T04:09:41.054Z,8.52
2022-10-11T04:12:24.101Z,7.43
2022-10-11T04:15:05.060Z,10.18
2022-10-11T04:17:45.932Z,8.98
2022-10-11T04:20:26.164Z,10.07
2022-10-11T04:23:06.476Z,6.22
2022-10-11T04:25:47.287Z,7.65
2022-10-11T04:28:27.934Z,6.03
2022-10-11T04:31:08.291Z,11.32
2022-10-11T04:33:48.085Z,7.80
2022-10-11T04:36:28.475Z,6.80
2022-10-11T04:39:08.886Z,6.10
2022-10-11T04:41:49.928Z,9.15
2022-10-11T04:44:30.253Z,7.10
2022-10-11T04:47:10.193Z,11.02
2022-10-11T04:49:50.227Z,8.45
2022-10-11T04:52:30.461Z,9.55
2022-10-11T04:55:11.540Z,6.57
2022-10-11T04:57:52.156Z,5.07
2022-10-11T05:00:32.498Z,11.02
2022-10-11T05:03:12.625Z,7.32
2022-10-11T05:05:54.203Z,7.60
2022-10-11T05:08:34.577Z,5.15
2022-10-11T05:11:17.587Z,5.22
2022-10-11T05:13:57.441Z,6.22
2022-10-11T05:16:37.476Z,6.70
2022-10-11T05:19:17.745Z,8.60
2022-10-11T05:21:57.799Z,6.85
2022-10-11T05:24:38.073Z,5.30
2022-10-11T05:27:17.874Z,7.65
2022-10-11T05:29:57.981Z,4.93
2022-10-11T05:32:37.974Z,9.07
2022-10-11T05:35:18.146Z,4.97
2022-10-11T05:37:58.407Z,5.45
2022-10-11T05:40:39.332Z,5.43
2022-10-11T05:43:20.091Z,6.90
2022-10-11T05:46:00.008Z,3.97
2022-10-11T05:48:40.743Z,5.50
2022-10-11T05:51:21.816Z,4.18
2022-10-11T05:54:01.961Z,5.20
2022-10-11T05:56:42.001Z,3.45
2022-10-11T05:59:22.072Z,4.78
2022-10-11T06:02:02.258Z,6.20
2022-10-11T06:04:42.360Z,7.12
2022-10-11T06:07:23.003Z,3.90
2022-10-11T06:10:05.274Z,4.30
2022-10-11T06:12:45.911Z,6.30
2022-10-11T06:15:26.001Z,4.15
2022-10-11T06:18:05.985Z,4.32
2022-10-11T06:20:45.933Z,3.03
2022-10-11T06:23:26.436Z,4.65
2022-10-11T06:26:09.319Z,4.43
2022-10-11T06:28:49.786Z,1.95
2022-10-11T06:31:29.554Z,2.95
2022-10-11T06:34:14.104Z,4.18
2022-10-11T06:36:54.694Z,3.65
2022-10-11T06:39:35.381Z,2.97
2022-10-11T06:42:16.891Z,4.43
2022-10-11T06:44:58.194Z,2.35
2022-10-11T06:47:38.068Z,2.72
2022-10-11T06:50:29.942Z,4.10
2022-10-11T06:53:19.068Z,3.30
2022-10-11T06:56:07.352Z,2.70
2022-10-11T06:58:49.062Z,2.72
2022-10-11T07:01:28.965Z,5.75
2022-10-11T07:04:12.033Z,3.70
2022-10-11T07:06:52.481Z,4.50
2022-10-11T07:09:32.471Z,2.78
2022-10-11T07:12:12.455Z,3.83
2022-10-11T07:14:52.509Z,1.77
2022-10-11T07:17:35.405Z,2.28
2022-10-11T07:20:15.959Z,2.25
2022-10-11T07:22:56.048Z,2.22
2022-10-11T07:25:36.018Z,2.03
2022-10-11T07:28:16.193Z,2.50
2022-10-11T07:30:56.439Z,1.58
2022-10-11T07:33:36.378Z,2.10
2022-10-11T07:36:16.377Z,1.83
2022-10-11T07:38:56.366Z,3.45
2022-10-11T07:41:40.644Z,3.40
2022-10-11T07:44:24.950Z,2.08
2022-10-11T07:47:07.782Z,1.40
2022-10-11T07:49:51.146Z,2.60
2022-10-11T07:52:31.209Z,1.77
2022-10-11T07:55:11.379Z,3.55
2022-10-11T07:57:51.462Z,2.20
2022-10-11T08:00:31.587Z,3.92
2022-10-11T08:03:11.917Z,3.80
2022-10-11T08:05:52.562Z,1.77
2022-10-11T08:08:33.733Z,3.70
2022-10-11T08:11:25.000Z,1.27
2022-10-11T08:14:09.124Z,1.23
2022-10-11T08:16:49.977Z,2.50
2022-10-11T08:19:29.939Z,1.58
2022-10-11T08:22:11.569Z,2.40
2022-10-11T08:24:51.649Z,3.22
2022-10-11T08:27:31.706Z,1.80
2022-10-11T08:30:12.312Z,3.80
2022-10-11T08:32:53.576Z,3.70
2022-10-11T08:35:33.537Z,2.08
2022-10-11T08:38:13.590Z,4.05
2022-10-11T08:40:59.779Z,2.95
2022-10-11T08:44:12.364Z,3.45
2022-10-11T08:47:00.700Z,1.40
2022-10-11T08:49:40.640Z,1.83
2022-10-11T08:52:28.643Z,3.17
2022-10-11T08:55:26.636Z,2.20
2022-10-11T08:58:13.576Z,2.03
2022-10-11T09:00:56.957Z,1.95
2022-10-11T09:03:44.900Z,2.70
2022-10-11T09:10:03.988Z,3.67
2022-10-11T09:12:44.928Z,2.67
2022-10-11T09:15:51.810Z,4.07
2022-10-11T09:18:50.984Z,2.72
2022-10-11T09:21:51.519Z,4.03
2022-10-11T09:24:33.603Z,1.48
2022-10-11T09:27:37.833Z,2.28
2022-10-11T09:30:23.519Z,2.60
2022-10-11T09:33:28.846Z,1.65
2022-10-11T09:36:30.262Z,3.22
2022-10-11T09:39:30.525Z,3.62
2022-10-11T09:42:12.116Z,1.95
2022-10-11T09:44:51.486Z,2.65
2022-10-11T09:47:31.119Z,2.40
2022-10-11T09:50:05.462Z,1.35
2022-10-11T09:52:34.557Z,3.62
2022-10-11T09:55:03.506Z,4.47
2022-10-11T09:57:31.349Z,5.82
2022-10-11T10:00:35.464Z,4.12
2022-10-11T10:03:04.915Z,1.20
2022-10-11T10:05:37.088Z,4.50
2022-10-11T10:08:23.047Z,5.22
2022-10-11T10:10:59.420Z,6.82
2022-10-11T10:13:41.136Z,5.20
2022-10-11T10:16:26.188Z,2.87
2022-10-11T10:19:06.369Z,3.08
2022-10-11T10:21:49.599Z,3.72
2022-10-11T10:24:33.452Z,3.55
2022-10-11T10:27:22.823Z,4.82
2022-10-11T10:30:01.245Z,2.55
2022-10-11T10:33:21.390Z,2.45
2022-10-11T10:36:15.925Z,3.45
2022-10-11T10:38:52.446Z,2.47
2022-10-11T10:41:21.015Z,3.03
2022-10-11T10:43:59.894Z,4.53
2022-10-11T10:46:56.658Z,3.65
2022-10-11T10:49:54.387Z,2.08
2022-10-11T10:52:53.749Z,1.50
2022-10-11T10:55:33.542Z,2.00
2022-10-11T10:58:29.495Z,2.15
2022-10-11T11:01:05.800Z,3.25
2022-10-11T11:03:44.557Z,2.67
2022-10-11T11:06:36.878Z,1.77
2022-10-11T11:09:40.272Z,1.00
2022-10-11T11:12:25.591Z,2.12
2022-10-11T11:15:05.959Z,8.80
2022-10-11T11:17:48.809Z,4.03
2022-10-11T11:23:20.417Z,3.72
2022-10-11T11:26:09.014Z,2.33
2022-10-11T11:28:58.421Z,3.08
2022-10-11T11:31:41.803Z,2.28
2022-10-11T11:34:28.152Z,3.80
2022-10-11T11:37:04.107Z,6.47
2022-10-11T11:40:04.781Z,3.20
2022-10-11T11:42:48.162Z,12.90
2022-10-11T11:45:22.449Z,3.83
2022-10-11T11:48:19.056Z,2.65
2022-10-11T11:50:56.089Z,2.17
2022-10-11T11:53:49.644Z,2.08
2022-10-11T11:56:29.722Z,1.77
2022-10-11T11:59:22.237Z,3.87
2022-10-11T12:02:02.971Z,3.65
2022-10-11T12:04:36.481Z,2.70
2022-10-11T12:07:17.795Z,4.70
2022-10-11T12:09:53.395Z,3.92
2022-10-11T12:12:34.422Z,3.50
2022-10-11T12:15:17.391Z,2.85
2022-10-11T12:17:57.630Z,3.90
2022-10-11T12:20:39.004Z,1.73
2022-10-11T12:23:20.065Z,2.95
2022-10-11T12:26:19.868Z,2.28
2022-10-11T12:29:01.651Z,1.37
2022-10-11T12:31:33.813Z,2.17
2022-10-11T12:34:04.289Z,3.58
2022-10-11T12:36:44.639Z,2.10
2022-10-11T12:39:21.557Z,4.07
2022-10-11T12:41:50.198Z,2.60
2022-10-11T12:44:30.727Z,5.55
2022-10-11T12:47:37.029Z,5.22
2022-10-11T12:50:28.448Z,5.87
2022-10-11T12:53:19.654Z,6.70
2022-10-11T12:55:53.277Z,6.57
2022-10-11T12:58:41.837Z,5.60
2022-10-11T13:01:22.877Z,7.87
2022-10-11T13:04:06.774Z,8.75
2022-10-11T13:06:47.646Z,8.60
2022-10-11T13:09:33.055Z,6.65
2022-10-11T13:12:07.079Z,8.23
2022-10-11T13:14:48.590Z,6.70
2022-10-11T13:17:27.318Z,7.40
2022-10-11T13:20:20.696Z,6.93
2022-10-11T13:22:54.275Z,5.80
2022-10-11T13:25:28.879Z,4.95
2022-10-11T13:27:59.898Z,6.80
2022-10-11T13:30:37.350Z,4.35
2022-10-11T13:33:14.064Z,4.15
2022-10-11T13:35:42.391Z,3.72
2022-10-11T13:38:43.511Z,7.43
2022-10-11T13:41:11.705Z,18.48
2022-10-11T13:43:41.028Z,18.62
2022-10-11T13:46:17.832Z,14.02
2022-10-11T13:48:46.239Z,13.27
2022-10-11T13:51:32.724Z,14.32
2022-10-11T13:54:02.368Z,11.10
2022-10-11T13:56:35.028Z,10.68
2022-10-11T13:59:03.591Z,11.25
2022-10-11T14:01:44.690Z,12.48
2022-10-11T14:04:17.734Z,6.68
2022-10-11T14:07:02.872Z,11.77
2022-10-11T14:09:35.446Z,13.13
2022-10-11T14:12:38.787Z,10.23
2022-10-11T14:15:25.063Z,7.57
2022-10-11T14:17:52.926Z,7.25
2022-10-11T14:20:29.544Z,10.35
2022-10-11T14:23:00.400Z,10.18
2022-10-11T14:25:28.670Z,8.43
2022-10-11T14:27:56.945Z,12.65
2022-10-11T14:30:27.783Z,14.10
2022-10-11T14:32:58.187Z,12.77
2022-10-11T14:35:32.088Z,11.82
2022-10-11T14:38:00.221Z,17.62
2022-10-11T14:40:31.111Z,16.25
2022-10-11T14:42:59.114Z,15.23
2022-10-11T14:45:27.239Z,15.90
2022-10-11T14:47:56.421Z,17.45
2022-10-11T14:50:27.036Z,20.65
2022-10-11T14:52:55.495Z,24.17
2022-10-11T14:55:23.636Z,21.52
2022-10-11T14:57:51.742Z,26.67
2022-10-11T15:00:24.865Z,23.85
2022-10-11T15:02:54.003Z,18.05
2022-10-11T15:05:24.354Z,39.30
2022-10-11T15:07:55.131Z,29.90
2022-10-11T15:10:28.210Z,57.08
2022-10-11T15:12:57.356Z,29.58
2022-10-11T15:15:27.983Z,25.08
2022-10-11T15:18:00.705Z,32.38
2022-10-11T15:20:33.538Z,26.75
2022-10-11T15:23:01.626Z,26.33
2022-10-11T15:25:31.056Z,25.88
2022-10-11T15:27:58.891Z,26.87
2022-10-11T15:30:30.308Z,28.87
2022-10-11T15:32:58.798Z,29.23
2022-10-11T15:35:27.931Z,35.05
2022-10-11T15:38:01.381Z,28.12
2022-10-11T15:40:36.114Z,25.12
2022-10-11T15:43:04.861Z,28.08
2022-10-11T15:45:37.269Z,24.05
2022-10-11T15:48:05.471Z,27.20
2022-10-11T15:50:40.173Z,19.85
2022-10-11T15:53:10.583Z,27.45
2022-10-11T15:55:47.143Z,24.27
2022-10-11T15:58:17.252Z,19.73
2022-10-11T16:00:47.420Z,23.08
2022-10-11T16:03:16.743Z,21.77
2022-10-11T16:05:44.684Z,29.87
2022-10-11T16:08:12.892Z,28.42
2022-10-11T16:10:41.716Z,37.30
2022-10-11T16:13:10.825Z,56.75
2022-10-11T16:15:41.042Z,57.47
2022-10-11T16:18:12.248Z,51.42
2022-10-11T16:20:41.598Z,60.72
2022-10-11T16:23:10.530Z,74.03
2022-10-11T16:25:39.463Z,64.82
2022-10-11T16:28:11.131Z,73.60
2022-10-11T16:30:42.626Z,75.07
2022-10-11T16:33:10.683Z,98.80
2022-10-11T16:35:42.289Z,49.80
2022-10-11T16:38:11.283Z,47.67
2022-10-11T16:40:40.631Z,47.80
2022-10-11T16:43:09.387Z,59.20
2022-10-11T16:45:38.139Z,53.85
2022-10-11T16:48:06.356Z,44.70
2022-10-11T16:50:39.607Z,50.50
2022-10-11T16:53:15.897Z,53.83
2022-10-11T16:55:46.783Z,50.12
2022-10-11T16:58:15.121Z,39.22
2022-10-11T17:00:46.054Z,32.33
2022-10-11T17:03:14.182Z,25.20
2022-10-11T17:05:42.007Z,23.52
2022-10-11T17:08:09.842Z,36.60
2022-10-11T17:10:40.634Z,32.85
2022-10-11T17:13:08.511Z,36.25
2022-10-11T17:15:36.674Z,30.70
2022-10-11T17:18:04.977Z,26.15
2022-10-11T17:20:33.390Z,15.95
2022-10-11T17:23:01.230Z,23.12
2022-10-11T17:25:30.189Z,35.75
2022-10-11T17:27:58.238Z,22.73
2022-10-11T17:30:26.468Z,31.15
2022-10-11T17:32:54.617Z,29.40
2022-10-11T17:35:22.386Z,23.73
2022-10-11T17:37:50.352Z,30.58
2022-10-11T17:40:18.871Z,25.05
2022-10-11T17:42:48.017Z,30.77
2022-10-11T17:45:15.821Z,21.33
2022-10-11T17:47:43.985Z,15.93
2022-10-11T17:50:11.851Z,19.27
2022-10-11T17:52:39.658Z,16.05
2022-10-11T17:55:08.109Z,18.40
2022-10-11T17:57:35.972Z,16.52
2022-10-11T18:00:05.671Z,15.90
2022-10-11T18:02:33.958Z,18.10
2022-10-11T18:05:05.305Z,19.35
2022-10-11T18:07:33.922Z,15.35
2022-10-11T18:10:01.673Z,16.95
2022-10-11T18:12:30.522Z,16.52
2022-10-11T18:14:58.724Z,13.73
2022-10-11T18:19:54.441Z,13.32
2022-10-11T18:22:22.681Z,16.55
2022-10-11T18:24:50.524Z,13.02
2022-10-11T18:27:18.688Z,14.93
2022-10-11T18:29:46.816Z,15.45
2022-10-11T18:32:18.395Z,13.43
2022-10-11T18:34:46.680Z,12.43
2022-10-11T18:37:14.632Z,14.60
2022-10-11T18:39:42.544Z,16.50
2022-10-11T18:42:10.790Z,15.30
2022-10-11T18:44:38.978Z,11.50
2022-10-11T18:47:06.835Z,13.25
2022-10-11T18:49:35.097Z,10.18
2022-10-11T18:52:02.953Z,10.68
2022-10-11T18:54:31.048Z,9.05
2022-10-11T18:57:02.309Z,12.30
2022-10-11T18:59:30.181Z,11.70
2022-10-11T19:01:58.058Z,14.10
2022-10-11T19:04:26.335Z,16.58
2022-10-11T19:06:54.406Z,13.95
2022-10-11T19:09:26.583Z,13.77
2022-10-11T19:11:57.570Z,11.30
2022-10-11T19:14:28.949Z,11.90
2022-10-11T19:16:57.623Z,13.93
2022-10-11T19:19:27.520Z,11.90
2022-10-11T19:21:55.248Z,15.63
2022-10-11T19:24:26.906Z,18.70
2022-10-11T19:27:01.245Z,40.28
2022-10-11T19:29:31.542Z,70.25
2022-10-11T19:32:01.129Z,49.72
2022-10-11T19:34:30.308Z,36.30
2022-10-11T19:37:01.273Z,37.35
2022-10-11T19:39:30.035Z,20.83
2022-10-11T19:41:58.210Z,22.30
2022-10-11T19:44:26.046Z,23.15
2022-10-11T19:46:53.924Z,28.12
2022-10-11T19:49:25.444Z,27.13
2022-10-11T19:51:55.729Z,45.80
2022-10-11T19:54:24.372Z,50.75
2022-10-11T19:56:52.872Z,45.35
2022-10-11T19:59:20.766Z,97.22
2022-10-11T20:01:52.664Z,66.62
2022-10-11T20:07:09.810Z,40.85
2022-10-11T20:09:38.093Z,33.10
2022-10-11T20:12:06.140Z,52.03
2022-10-11T20:14:33.832Z,75.72
2022-10-11T20:17:02.065Z,37.22
2022-10-11T20:19:31.307Z,27.62
2022-10-11T20:22:00.854Z,32.00
2022-10-11T20:24:33.397Z,28.40
2022-10-11T20:27:04.412Z,28.92
2022-10-11T20:29:32.971Z,21.40
2022-10-11T20:32:00.917Z,24.80
2022-10-11T20:34:31.688Z,14.40
2022-10-11T20:37:02.402Z,27.70
2022-10-11T20:39:30.222Z,31.27
2022-10-11T20:41:58.325Z,27.02
2022-10-11T20:44:29.658Z,40.58
2022-10-11T20:47:03.026Z,35.42
2022-10-11T20:49:32.677Z,34.80
2022-10-11T20:52:00.291Z,30.60
2022-10-11T20:54:29.268Z,52.20
2022-10-11T20:56:57.978Z,49.58
2022-10-11T20:59:25.850Z,43.72
2022-10-11T21:01:53.663Z,35.55
2022-10-11T21:04:21.848Z,35.03
2022-10-11T21:06:49.950Z,38.80
2022-10-11T21:09:17.985Z,40.00
2022-10-11T21:11:46.541Z,38.20
2022-10-11T21:14:14.469Z,41.55
2022-10-11T21:16:42.427Z,42.50
2022-10-11T21:19:14.494Z,45.63
2022-10-11T21:21:42.884Z,37.85
2022-10-11T21:24:11.140Z,34.58
2022-10-11T21:26:39.101Z,34.47
2022-10-11T21:29:07.813Z,34.47
2022-10-11T21:31:36.667Z,29.42
2022-10-11T21:34:05.480Z,30.20
2022-10-11T21:36:33.344Z,24.50
2022-10-11T21:39:01.574Z,33.78
2022-10-11T21:41:30.393Z,28.40
2022-10-11T21:43:58.663Z,30.10
2022-10-11T21:47:05.026Z,32.42
2022-10-11T21:49:24.390Z,27.83
2022-10-11T21:51:52.685Z,29.52
2022-10-11T21:54:20.637Z,36.90
2022-10-11T21:56:48.546Z,31.12
2022-10-11T21:59:16.797Z,32.72
2022-10-11T22:01:47.755Z,29.45
2022-10-11T22:04:15.996Z,24.87
2022-10-11T22:06:43.926Z,25.45
2022-10-11T22:09:12.001Z,29.45
2022-10-11T22:11:40.165Z,17.30
2022-10-11T22:14:08.881Z,19.52
2022-10-11T22:16:36.915Z,24.10
2022-10-11T22:19:05.286Z,23.58
2022-10-11T22:21:33.261Z,26.23
2022-10-11T22:24:01.184Z,22.90
2022-10-11T22:26:31.534Z,28.38
2022-10-11T22:29:00.733Z,26.60
2022-10-11T22:31:29.744Z,31.80
2022-10-11T22:34:00.272Z,25.92
2022-10-11T22:36:30.806Z,27.10
2022-10-11T22:39:02.953Z,25.75
2022-10-11T22:41:35.771Z,28.05
2022-10-11T22:44:04.976Z,25.37
2022-10-11T22:46:33.161Z,24.52
2022-10-11T22:49:03.970Z,20.15
2022-10-11T22:51:32.143Z,21.37
2022-10-11T22:53:59.947Z,21.60
2022-10-11T22:56:30.625Z,21.73
2022-10-11T22:58:59.289Z,18.75
2022-10-11T23:01:27.159Z,25.33
2022-10-11T23:03:55.102Z,22.65
2022-10-11T23:06:23.455Z,24.00
2022-10-11T23:08:51.224Z,20.52
2022-10-11T23:11:19.147Z,22.17
2022-10-11T23:13:47.265Z,21.23
2022-10-11T23:16:18.253Z,16.20
2022-10-11T23:18:45.943Z,20.37
2022-10-11T23:21:14.064Z,20.80
2022-10-11T23:23:41.874Z,22.40
2022-10-11T23:26:14.602Z,23.35
2022-10-11T23:28:43.472Z,11.75
2022-10-11T23:31:14.832Z,14.38
2022-10-11T23:33:43.849Z,19.45
2022-10-11T23:36:20.187Z,19.20
2022-10-11T23:38:53.588Z,24.95
2022-10-11T23:41:22.758Z,26.08
2022-10-11T23:43:51.165Z,18.83
2022-10-11T23:46:19.055Z,13.88
2022-10-11T23:48:46.866Z,21.02
2022-10-11T23:51:15.370Z,21.10
2022-10-11T23:53:43.244Z,21.67
2022-10-11T23:56:12.157Z,16.50
2022-10-11T23:58:40.789Z,20.23
